Time;durP1;ratioP1;P1;durP2;ratioP2;P2;SDS_P1;SDS_P2;PMS_P1;PMS_P2;Temp;Humidity;BMP_temperature;BMP_pressure;BME280_temperature;BME280_humidity;BME280_pressure;Samples;Min_cycle;Max_cycle;Signal;HPM_P1;HPM_P2
2023/12/17 00:01:56;;;;;;;17.48;8.68;;;0.80;83.70;;;;;;5017439;28;20223;-86
2023/12/17 00:04:23;;;;;;;18.33;7.65;;;0.80;84.20;;;;;;5028458;28;20368;-86
2023/12/17 00:06:50;;;;;;;17.30;10.38;;;0.80;84.00;;;;;;5017428;28;20267;-87
2023/12/17 00:09:17;;;;;;;16.85;10.57;;;0.80;84.40;;;;;;5027637;28;20704;-87
2023/12/17 00:11:44;;;;;;;19.00;9.20;;;0.80;84.20;;;;;;5017975;28;20219;-87
2023/12/17 00:14:13;;;;;;;20.05;10.20;;;0.80;84.70;;;;;;5014666;28;20192;-88
2023/12/17 00:16:40;;;;;;;14.52;9.20;;;0.80;85.10;;;;;;5006540;28;20224;-85
2023/12/17 00:19:09;;;;;;;16.42;8.25;;;0.80;84.90;;;;;;5015829;28;20203;-87
2023/12/17 00:21:36;;;;;;;10.35;6.00;;;0.70;84.10;;;;;;5005745;28;20234;-86
2023/12/17 00:24:03;;;;;;;12.45;6.07;;;0.70;83.70;;;;;;5016532;28;20238;-86
2023/12/17 00:26:30;;;;;;;11.88;5.60;;;0.70;83.90;;;;;;5006746;28;20231;-87
2023/12/17 00:28:58;;;;;;;9.02;5.18;;;0.70;84.50;;;;;;5037276;28;20200;-84
2023/12/17 00:31:25;;;;;;;9.48;4.57;;;0.70;84.40;;;;;;5017404;28;20226;-86
2023/12/17 00:33:52;;;;;;;9.60;5.18;;;0.70;84.20;;;;;;5027220;28;20195;-86
2023/12/17 00:36:21;;;;;;;7.65;4.35;;;0.70;84.30;;;;;;5017161;28;20234;-86
2023/12/17 00:38:48;;;;;;;10.82;4.80;;;0.70;84.20;;;;;;5027113;28;20195;-87
2023/12/17 00:41:15;;;;;;;9.50;5.85;;;0.70;83.90;;;;;;5016854;28;20715;-86
2023/12/17 00:43:43;;;;;;;10.35;4.90;;;0.70;83.30;;;;;;5026919;28;20200;-86
2023/12/17 00:46:10;;;;;;;9.13;4.85;;;0.70;82.10;;;;;;5032994;28;20251;-88
2023/12/17 00:48:37;;;;;;;7.10;4.40;;;0.60;81.30;;;;;;5034058;28;20179;-89
2023/12/17 00:51:05;;;;;;;5.35;3.70;;;0.50;81.40;;;;;;5034732;28;20187;-88
2023/12/17 00:53:33;;;;;;;5.63;4.13;;;0.50;81.90;;;;;;5034244;28;20608;-88
2023/12/17 00:56:00;;;;;;;6.65;4.00;;;0.50;82.50;;;;;;5034521;28;20219;-89
2023/12/17 00:58:27;;;;;;;6.43;4.32;;;0.50;83.10;;;;;;5034482;28;20249;-88
2023/12/17 01:00:54;;;;;;;10.30;5.40;;;0.60;83.50;;;;;;5034420;28;20646;-88
2023/12/17 01:03:22;;;;;;;7.68;4.45;;;0.60;83.70;;;;;;5034058;28;20525;-89
2023/12/17 01:05:49;;;;;;;8.60;4.97;;;0.60;83.50;;;;;;5034392;28;20196;-88
2023/12/17 01:08:16;;;;;;;8.63;5.32;;;0.50;83.10;;;;;;5014272;28;20231;-89
2023/12/17 01:10:45;;;;;;;8.45;4.68;;;0.50;82.90;;;;;;5014536;28;20594;-88
2023/12/17 01:13:12;;;;;;;9.80;6.05;;;0.50;83.00;;;;;;5014173;28;20192;-88
2023/12/17 01:15:39;;;;;;;8.45;6.18;;;0.50;82.80;;;;;;5014447;28;20647;-88
2023/12/17 01:18:06;;;;;;;7.22;4.35;;;0.50;83.00;;;;;;5025116;28;20265;-87
2023/12/17 01:20:33;;;;;;;7.03;4.90;;;0.50;82.70;;;;;;5033821;28;20638;-88
2023/12/17 01:23:00;;;;;;;13.77;5.88;;;0.50;82.20;;;;;;5033715;28;20198;-88
2023/12/17 01:25:27;;;;;;;11.45;5.45;;;0.50;81.60;;;;;;5033389;28;20650;-87
2023/12/17 01:27:56;;;;;;;8.23;5.35;;;0.40;80.90;;;;;;5033670;28;20286;-88
2023/12/17 01:30:23;;;;;;;11.25;4.70;;;0.40;80.40;;;;;;5033990;28;20229;-88
2023/12/17 01:32:50;;;;;;;7.60;4.78;;;0.40;80.20;;;;;;5033569;28;20556;-88
2023/12/17 01:35:17;;;;;;;6.47;3.85;;;0.40;80.30;;;;;;5033454;28;20227;-89
2023/12/17 01:37:44;;;;;;;8.15;4.72;;;0.30;79.40;;;;;;5033729;28;20229;-89
2023/12/17 01:40:12;;;;;;;7.95;4.32;;;0.30;79.90;;;;;;5033780;28;20274;-88
2023/12/17 01:42:39;;;;;;;6.50;4.07;;;0.30;80.40;;;;;;5033116;28;20282;-89
2023/12/17 01:45:09;;;;;;;7.10;4.40;;;0.30;81.00;;;;;;5033427;28;20579;-89
2023/12/17 01:47:36;;;;;;;8.05;4.97;;;0.30;81.30;;;;;;5033576;28;20230;-88
2023/12/17 01:50:04;;;;;;;9.68;5.13;;;0.30;81.40;;;;;;5033599;28;20191;-88
2023/12/17 01:52:31;;;;;;;7.50;4.43;;;0.20;81.40;;;;;;5033652;28;20195;-88
2023/12/17 01:54:59;;;;;;;9.75;5.35;;;0.20;80.90;;;;;;5033203;28;20249;-88
2023/12/17 01:57:26;;;;;;;9.75;6.05;;;0.20;80.50;;;;;;5032757;28;20207;-88
2023/12/17 01:59:53;;;;;;;9.70;5.75;;;0.20;80.50;;;;;;5033018;28;20646;-88
2023/12/17 02:02:22;;;;;;;12.73;5.75;;;0.20;81.30;;;;;;5032964;28;20237;-87
2023/12/17 02:04:50;;;;;;;7.65;4.72;;;0.20;81.30;;;;;;5033233;28;20639;-88
2023/12/17 02:07:17;;;;;;;11.75;6.00;;;0.20;81.30;;;;;;5033545;28;20201;-88
2023/12/17 02:09:45;;;;;;;8.77;5.20;;;0.20;81.40;;;;;;5033051;28;20214;-89
2023/12/17 02:12:23;;;;;;;10.30;5.82;;;0.10;81.70;;;;;;5032481;28;20191;-89
2023/12/17 02:14:51;;;;;;;10.13;5.35;;;0.10;82.10;;;;;;5033138;28;20195;-88
2023/12/17 02:17:24;;;;;;;7.78;5.05;;;0.10;82.10;;;;;;5033174;28;20207;-87
2023/12/17 02:19:52;;;;;;;9.18;5.88;;;0.10;82.20;;;;;;5033348;28;20244;-87
2023/12/17 02:22:19;;;;;;;8.23;4.65;;;0.10;81.70;;;;;;5033189;28;20192;-87
2023/12/17 02:24:47;;;;;;;6.97;4.35;;;0.10;81.50;;;;;;5032639;28;20642;-87
2023/12/17 02:27:21;;;;;;;10.07;5.78;;;0.10;81.50;;;;;;5032861;28;20194;-88
2023/12/17 02:29:48;;;;;;;8.80;4.88;;;0.20;81.70;;;;;;5033062;28;20196;-88
2023/12/17 02:32:15;;;;;;;7.38;4.68;;;0.20;81.60;;;;;;5032786;28;20238;-88
2023/12/17 02:34:42;;;;;;;7.70;4.60;;;0.10;81.80;;;;;;5033188;28;20524;-89
2023/12/17 02:37:10;;;;;;;5.47;4.35;;;0.10;83.00;;;;;;5032670;28;20207;-88
2023/12/17 02:39:37;;;;;;;6.13;3.90;;;0.10;83.60;;;;;;5032715;28;20192;-87
2023/12/17 02:42:06;;;;;;;6.32;3.90;;;0.10;83.90;;;;;;5032771;28;20192;-89
2023/12/17 02:44:33;;;;;;;9.00;5.22;;;0.10;83.50;;;;;;5032708;28;20642;-88
2023/12/17 02:47:00;;;;;;;8.10;4.55;;;0.10;83.00;;;;;;5032337;28;20297;-90
2023/12/17 02:49:28;;;;;;;10.25;4.38;;;0.10;82.60;;;;;;5032553;28;20715;-90
2023/12/17 02:51:55;;;;;;;6.22;4.20;;;0.10;82.30;;;;;;5032463;28;20529;-88
2023/12/17 02:54:23;;;;;;;7.05;4.38;;;0.10;82.40;;;;;;5032670;28;20258;-89
2023/12/17 02:56:51;;;;;;;6.57;4.18;;;0.10;82.00;;;;;;5032943;28;20211;-89
2023/12/17 02:59:20;;;;;;;10.68;5.38;;;0.10;81.70;;;;;;5032386;28;20234;-87
2023/12/17 03:01:47;;;;;;;7.82;5.07;;;0.00;81.50;;;;;;5032533;28;20195;-82
2023/12/17 03:04:15;;;;;;;8.93;5.05;;;0.00;82.10;;;;;;5032792;28;20200;-88
2023/12/17 03:06:42;;;;;;;6.82;4.70;;;0.00;82.50;;;;;;5032829;28;20601;-88
2023/12/17 03:09:09;;;;;;;6.25;4.30;;;0.00;82.80;;;;;;5032326;28;20223;-89
2023/12/17 03:11:36;;;;;;;6.72;3.95;;;0.10;82.80;;;;;;5032588;28;20227;-88
2023/12/17 03:14:03;;;;;;;6.55;4.03;;;0.00;81.90;;;;;;5032854;28;20295;-88
2023/12/17 03:16:31;;;;;;;6.35;4.43;;;0.00;81.30;;;;;;5032140;28;20211;-88
2023/12/17 03:18:59;;;;;;;8.07;3.65;;;-0.10;80.50;;;;;;5032497;28;20191;-88
2023/12/17 03:21:27;;;;;;;6.90;3.67;;;-0.10;80.90;;;;;;5032708;28;20214;-88
2023/12/17 03:23:55;;;;;;;5.57;3.72;;;-0.10;80.10;;;;;;5033226;28;20199;-88
2023/12/17 03:26:22;;;;;;;7.03;3.65;;;-0.20;80.30;;;;;;5035954;28;20677;-88
2023/12/17 03:28:49;;;;;;;6.18;3.83;;;-0.30;80.90;;;;;;5035864;28;20642;-88
2023/12/17 03:31:17;;;;;;;7.20;3.15;;;-0.20;81.10;;;;;;5035584;28;20187;-88
2023/12/17 03:33:46;;;;;;;6.97;3.60;;;-0.20;81.10;;;;;;5036279;28;20619;-88
2023/12/17 03:36:14;;;;;;;4.70;3.17;;;-0.30;81.00;;;;;;5035693;28;20199;-88
2023/12/17 03:38:42;;;;;;;5.75;3.67;;;-0.30;81.50;;;;;;5035378;28;20191;-88
2023/12/17 03:41:21;;;;;;;6.40;3.78;;;-0.20;82.20;;;;;;5035767;28;20192;-88
2023/12/17 03:43:50;;;;;;;5.57;3.72;;;-0.20;83.00;;;;;;5036030;28;20175;-87
2023/12/17 03:46:17;;;;;;;6.07;3.40;;;-0.20;83.50;;;;;;5035631;28;20310;-88
2023/12/17 03:48:46;;;;;;;5.78;3.85;;;-0.20;83.80;;;;;;5035465;28;20183;-88
2023/12/17 03:51:13;;;;;;;5.50;3.08;;;-0.20;84.20;;;;;;5035498;28;20191;-88
2023/12/17 03:53:41;;;;;;;8.60;4.18;;;-0.20;84.20;;;;;;5035710;28;20261;-87
2023/12/17 03:56:09;;;;;;;6.18;3.92;;;-0.20;84.10;;;;;;5035174;28;20192;-88
2023/12/17 03:58:36;;;;;;;5.82;2.83;;;-0.30;84.50;;;;;;5035398;28;20302;-88
2023/12/17 04:01:05;;;;;;;4.25;2.55;;;-0.30;85.20;;;;;;5035586;28;20265;-87
2023/12/17 04:03:32;;;;;;;6.20;2.90;;;-0.30;85.80;;;;;;5035572;28;20195;-89
2023/12/17 04:06:02;;;;;;;11.23;4.40;;;-0.30;86.30;;;;;;5035118;28;20192;-88
2023/12/17 04:08:29;;;;;;;6.78;3.90;;;-0.20;86.50;;;;;;5035346;28;20281;-88
2023/12/17 04:10:56;;;;;;;7.40;3.95;;;-0.20;86.90;;;;;;5035372;28;20195;-88
2023/12/17 04:13:23;;;;;;;6.40;4.00;;;-0.20;87.50;;;;;;5035025;28;20238;-88
2023/12/17 04:15:50;;;;;;;5.82;3.70;;;-0.20;87.00;;;;;;5034670;28;20192;-88
2023/12/17 04:18:18;;;;;;;5.32;3.05;;;-0.20;86.50;;;;;;5035185;28;20562;-87
2023/12/17 04:20:45;;;;;;;5.53;2.67;;;-0.10;85.40;;;;;;5035372;28;20549;-87
2023/12/17 04:23:13;;;;;;;6.20;4.40;;;-0.10;84.50;;;;;;5035126;28;20237;-88
2023/12/17 04:25:40;;;;;;;6.13;3.42;;;-0.20;83.30;;;;;;5034854;28;20206;-88
2023/12/17 04:28:07;;;;;;;10.02;3.25;;;-0.30;82.70;;;;;;5035057;28;20531;-88
2023/12/17 04:30:35;;;;;;;4.82;3.53;;;-0.30;83.00;;;;;;5034904;28;20199;-88
2023/12/17 04:33:02;;;;;;;4.88;3.35;;;-0.30;83.00;;;;;;5034663;28;20191;-87
2023/12/17 04:35:29;;;;;;;87.93;29.50;;;-0.30;83.00;;;;;;5033846;28;20222;-87
2023/12/17 04:37:56;;;;;;;38.53;15.85;;;-0.30;82.90;;;;;;5034379;28;20682;-87
2023/12/17 04:40:25;;;;;;;14.18;5.70;;;-0.30;83.00;;;;;;5034531;28;20199;-87
2023/12/17 04:42:52;;;;;;;8.50;4.18;;;-0.30;82.50;;;;;;5034814;28;20519;-89
2023/12/17 04:45:19;;;;;;;4.55;2.80;;;-0.30;81.50;;;;;;5034493;28;20195;-88
2023/12/17 04:47:46;;;;;;;7.82;3.58;;;-0.40;79.50;;;;;;5034391;28;20297;-88
2023/12/17 04:50:13;;;;;;;4.60;3.25;;;-0.50;79.20;;;;;;5034326;28;20237;-88
2023/12/17 04:52:40;;;;;;;6.28;4.35;;;-0.50;79.70;;;;;;5034333;28;20192;-88
2023/12/17 04:55:08;;;;;;;6.78;2.97;;;-0.60;80.10;;;;;;5034190;28;20191;-88
2023/12/17 04:57:37;;;;;;;5.63;3.58;;;-0.60;80.60;;;;;;5034013;28;20234;-87
2023/12/17 05:00:05;;;;;;;7.13;3.60;;;-0.60;81.20;;;;;;5034078;28;20223;-88
2023/12/17 05:02:32;;;;;;;4.93;3.30;;;-0.60;81.90;;;;;;5034386;28;20192;-87
2023/12/17 05:05:00;;;;;;;8.10;4.13;;;-0.60;82.50;;;;;;5034418;28;20253;-87
2023/12/17 05:07:27;;;;;;;7.07;3.50;;;-0.60;83.00;;;;;;5033923;28;20199;-87
2023/12/17 05:09:54;;;;;;;6.88;3.85;;;-0.60;83.20;;;;;;5034305;28;20195;-88
2023/12/17 05:12:21;;;;;;;6.80;4.22;;;-0.70;83.20;;;;;;5033981;28;20191;-88
2023/12/17 05:14:50;;;;;;;7.93;4.43;;;-0.70;83.50;;;;;;5033816;28;20191;-87
2023/12/17 05:17:17;;;;;;;7.28;4.13;;;-0.70;83.90;;;;;;5033686;28;20207;-87
2023/12/17 05:19:44;;;;;;;7.63;4.35;;;-0.70;84.50;;;;;;5033828;28;20246;-88
2023/12/17 05:22:12;;;;;;;6.78;3.70;;;-0.70;84.20;;;;;;5033673;28;20668;-87
2023/12/17 05:24:39;;;;;;;4.53;2.60;;;-0.70;84.40;;;;;;5034018;28;20255;-87
2023/12/17 05:27:06;;;;;;;5.15;3.13;;;-0.60;84.30;;;;;;5033957;28;20245;-87
2023/12/17 05:29:33;;;;;;;4.88;2.53;;;-0.60;84.60;;;;;;5033691;28;20187;-87
2023/12/17 05:32:02;;;;;;;5.38;2.58;;;-0.60;84.60;;;;;;5033909;28;20545;-88
2023/12/17 05:34:29;;;;;;;4.53;2.60;;;-0.60;84.30;;;;;;5033965;28;20199;-87
2023/12/17 05:36:57;;;;;;;3.80;2.30;;;-0.60;84.20;;;;;;5033394;28;20197;-87
2023/12/17 05:39:24;;;;;;;5.10;2.45;;;-0.60;84.20;;;;;;5033713;28;20210;-87
2023/12/17 05:41:51;;;;;;;5.97;2.63;;;-0.60;84.30;;;;;;5033378;28;20194;-88
2023/12/17 05:44:18;;;;;;;6.75;2.85;;;-0.60;84.10;;;;;;5033705;28;20196;-88
2023/12/17 05:46:45;;;;;;;4.72;2.13;;;-0.60;83.70;;;;;;5032569;28;20254;-88
2023/12/17 05:49:14;;;;;;;3.83;2.10;;;-0.60;83.40;;;;;;5033322;28;20249;-88
2023/12/17 05:51:43;;;;;;;3.47;2.17;;;-0.60;83.30;;;;;;5032880;28;20250;-87
2023/12/17 05:54:11;;;;;;;6.10;2.80;;;-0.60;83.30;;;;;;5033236;28;20223;-89
2023/12/17 05:56:42;;;;;;;4.32;1.95;;;-0.50;84.00;;;;;;5033507;28;20200;-89
2023/12/17 05:59:09;;;;;;;4.50;2.85;;;-0.50;84.20;;;;;;5033366;28;20307;-88
2023/12/17 06:01:37;;;;;;;5.13;2.40;;;-0.50;83.80;;;;;;5033108;28;20227;-89
2023/12/17 06:04:04;;;;;;;6.90;3.50;;;-0.50;83.90;;;;;;5032797;28;20237;-89
2023/12/17 06:06:33;;;;;;;5.53;3.72;;;-0.40;84.40;;;;;;5033575;28;20542;-89
2023/12/17 06:09:00;;;;;;;5.07;3.00;;;-0.40;84.50;;;;;;5033027;28;20195;-89
2023/12/17 06:11:27;;;;;;;4.95;3.05;;;-0.40;84.30;;;;;;5032952;28;20237;-89
2023/12/17 06:13:54;;;;;;;6.03;3.05;;;-0.50;84.30;;;;;;5033075;28;20191;-89
2023/12/17 06:16:22;;;;;;;6.38;4.20;;;-0.50;84.70;;;;;;5033389;28;20202;-88
2023/12/17 06:18:50;;;;;;;7.50;5.22;;;-0.40;84.40;;;;;;5032937;28;20241;-88
2023/12/17 06:21:24;;;;;;;7.72;4.95;;;-0.40;84.00;;;;;;5033046;28;20188;-88
2023/12/17 06:23:57;;;;;;;7.70;3.85;;;-0.50;83.20;;;;;;5033339;28;20195;-88
2023/12/17 06:26:24;;;;;;;6.78;4.13;;;-0.50;83.20;;;;;;5032710;28;20241;-88
2023/12/17 06:28:51;;;;;;;5.80;4.35;;;-0.50;82.80;;;;;;5032950;28;20646;-88
2023/12/17 06:31:19;;;;;;;6.15;3.95;;;-0.50;82.40;;;;;;5033168;28;20195;-88
2023/12/17 06:33:46;;;;;;;5.38;4.20;;;-0.40;81.90;;;;;;5033177;28;20738;-87
2023/12/17 06:36:13;;;;;;;4.68;3.35;;;-0.50;81.60;;;;;;5032624;28;20614;-88
2023/12/17 06:38:40;;;;;;;7.93;4.95;;;-0.50;81.90;;;;;;5032423;28;20281;-89
2023/12/17 06:41:10;;;;;;;7.68;4.75;;;-0.50;82.00;;;;;;5033192;28;20195;-88
2023/12/17 06:43:40;;;;;;;7.90;5.60;;;-0.50;82.40;;;;;;5032728;28;20180;-88
2023/12/17 06:46:07;;;;;;;7.18;4.82;;;-0.50;82.40;;;;;;5032814;28;20224;-88
2023/12/17 06:48:35;;;;;;;8.25;4.53;;;-0.50;82.20;;;;;;5032838;28;20234;-88
2023/12/17 06:51:02;;;;;;;5.65;4.78;;;-0.60;82.00;;;;;;5032439;28;20192;-89
2023/12/17 06:53:30;;;;;;;8.85;5.65;;;-0.60;81.80;;;;;;5033067;28;20192;-88
2023/12/17 06:55:57;;;;;;;7.65;4.70;;;-0.60;82.40;;;;;;5032675;28;20233;-89
2023/12/17 06:58:25;;;;;;;11.38;5.53;;;-0.60;82.80;;;;;;5034162;28;20735;-88
2023/12/17 07:00:52;;;;;;;11.77;5.68;;;-0.60;82.30;;;;;;5036255;28;20596;-89
2023/12/17 07:03:20;;;;;;;7.03;4.43;;;-0.60;82.50;;;;;;5036030;28;20191;-83
2023/12/17 07:05:47;;;;;;;5.95;3.60;;;-0.50;82.60;;;;;;5036431;28;20227;-89
2023/12/17 07:08:14;;;;;;;6.30;3.83;;;-0.50;83.00;;;;;;5036015;28;20650;-88
2023/12/17 07:10:41;;;;;;;6.88;3.80;;;-0.50;83.40;;;;;;5035922;28;20199;-88
2023/12/17 07:13:10;;;;;;;4.13;2.47;;;-0.40;83.90;;;;;;5014557;28;20192;-87
2023/12/17 07:15:40;;;;;;;5.28;3.00;;;-0.40;84.00;;;;;;5008326;28;20661;-86
2023/12/17 07:18:09;;;;;;;4.38;2.92;;;-0.20;84.10;;;;;;5024988;28;20230;-90
2023/12/17 07:20:37;;;;;;;5.30;3.47;;;-0.20;84.60;;;;;;5026523;28;20222;-89
2023/12/17 07:23:04;;;;;;;4.82;2.92;;;0.00;83.50;;;;;;5033080;28;20227;-83
2023/12/17 07:25:36;;;;;;;5.50;3.30;;;0.20;82.70;;;;;;5039751;28;20238;-90
2023/12/17 07:28:04;;;;;;;9.15;3.95;;;0.60;81.60;;;;;;5050424;28;20669;-89
2023/12/17 07:30:34;;;;;;;4.82;3.22;;;1.00;79.30;;;;;;5056387;28;20222;-91
2023/12/17 07:33:06;;;;;;;5.47;3.28;;;1.50;77.00;;;;;;5050512;28;20195;-90
2023/12/17 07:35:37;;;;;;;5.53;3.70;;;2.00;75.40;;;;;;5056121;28;20228;-89
2023/12/17 07:38:05;;;;;;;4.10;2.80;;;2.30;74.00;;;;;;5029595;28;20377;-88
2023/12/17 07:40:32;;;;;;;5.88;2.95;;;2.40;71.50;;;;;;5035375;28;20927;-87
2023/12/17 07:43:01;;;;;;;9.45;4.75;;;2.40;71.80;;;;;;5050246;28;20241;-85
2023/12/17 07:45:29;;;;;;;16.92;8.35;;;2.50;71.20;;;;;;5040201;28;20305;-88
2023/12/17 07:47:59;;;;;;;7.00;4.85;;;2.50;71.50;;;;;;5029283;28;20227;-89
2023/12/17 07:50:28;;;;;;;8.25;5.00;;;2.50;70.70;;;;;;5018880;28;20297;-91
2023/12/17 07:52:56;;;;;;;6.22;4.25;;;2.50;69.90;;;;;;5022272;28;20211;-90
2023/12/17 07:55:23;;;;;;;12.00;6.05;;;2.40;70.10;;;;;;5030510;28;20712;-90
2023/12/17 07:57:50;;;;;;;11.10;7.72;;;2.30;69.80;;;;;;5050646;28;20221;-92
2023/12/17 08:00:18;;;;;;;10.73;6.60;;;2.20;70.50;;;;;;5051951;28;20749;-92
2023/12/17 08:02:46;;;;;;;10.27;8.23;;;2.20;70.60;;;;;;5057290;28;20726;-87
2023/12/17 08:05:13;;;;;;;15.55;9.40;;;2.20;71.20;;;;;;5049576;28;20246;-87
2023/12/17 08:07:42;;;;;;;11.75;9.05;;;2.20;71.80;;;;;;5042617;28;20242;-88
2023/12/17 08:10:09;;;;;;;15.10;9.73;;;2.20;72.00;;;;;;5055514;28;20292;-89
2023/12/17 08:12:37;;;;;;;11.65;9.02;;;2.20;71.90;;;;;;5056251;28;20205;-88
2023/12/17 08:15:06;;;;;;;14.85;10.60;;;2.20;72.40;;;;;;5046770;28;20232;-86
2023/12/17 08:17:33;;;;;;;13.40;10.43;;;2.20;73.20;;;;;;5036625;28;20207;-88
2023/12/17 08:20:00;;;;;;;21.10;12.90;;;2.30;72.90;;;;;;5035136;28;20229;-88
2023/12/17 08:22:27;;;;;;;13.02;10.27;;;2.30;72.70;;;;;;5044657;28;20250;-90
2023/12/17 08:24:56;;;;;;;17.55;10.70;;;2.30;73.20;;;;;;5042261;28;20260;-89
2023/12/17 08:27:23;;;;;;;15.13;10.20;;;2.30;73.60;;;;;;5049827;28;20219;-88
2023/12/17 08:29:50;;;;;;;15.05;10.23;;;2.40;73.70;;;;;;5047600;28;20224;-81
2023/12/17 08:32:18;;;;;;;14.38;8.93;;;2.40;73.70;;;;;;5057797;28;20202;-87
2023/12/17 08:34:45;;;;;;;18.70;10.45;;;2.50;73.90;;;;;;5048048;28;20298;-87
2023/12/17 08:37:12;;;;;;;22.85;16.48;;;2.60;74.20;;;;;;5055157;28;20646;-89
2023/12/17 08:39:43;;;;;;;27.30;16.63;;;2.80;74.00;;;;;;5011545;28;20238;-81
2023/12/17 08:42:11;;;;;;;19.00;12.45;;;3.00;74.20;;;;;;5022574;28;20222;-86
2023/12/17 08:44:39;;;;;;;14.65;12.02;;;3.20;74.20;;;;;;5021424;28;20322;-88
2023/12/17 08:47:06;;;;;;;17.45;13.18;;;3.50;73.90;;;;;;5020062;28;20334;-90
2023/12/17 08:49:33;;;;;;;24.25;15.35;;;3.90;73.30;;;;;;5004257;28;20226;-90
2023/12/17 08:52:00;;;;;;;21.20;14.55;;;4.20;72.10;;;;;;5029502;28;20231;-85
2023/12/17 08:54:28;;;;;;;18.90;13.20;;;4.60;70.50;;;;;;5023185;28;20233;-84
2023/12/17 08:56:55;;;;;;;14.60;11.63;;;5.00;69.90;;;;;;5048779;28;20226;-86
2023/12/17 08:59:23;;;;;;;14.38;11.55;;;5.30;69.50;;;;;;5031269;28;20656;-85
2023/12/17 09:01:51;;;;;;;16.92;10.00;;;5.60;68.10;;;;;;5046251;28;20620;-88
2023/12/17 09:04:18;;;;;;;12.60;9.43;;;5.90;67.30;;;;;;5022039;28;20265;-89
2023/12/17 09:06:47;;;;;;;9.52;7.82;;;6.20;65.60;;;;;;5039963;28;20204;-89
2023/12/17 09:09:15;;;;;;;13.40;8.85;;;6.30;64.70;;;;;;5005640;28;20214;-89
2023/12/17 09:11:44;;;;;;;11.05;9.05;;;6.50;64.60;;;;;;5041206;28;20200;-88
2023/12/17 09:14:11;;;;;;;10.70;8.05;;;6.70;64.10;;;;;;5019209;28;20204;-88
2023/12/17 09:16:39;;;;;;;9.27;6.30;;;7.00;63.90;;;;;;5041318;28;20195;-89
2023/12/17 09:19:07;;;;;;;9.40;7.60;;;7.30;62.80;;;;;;5018649;28;20223;-89
2023/12/17 09:21:34;;;;;;;13.05;8.95;;;7.60;62.30;;;;;;5040849;28;20702;-88
2023/12/17 09:24:02;;;;;;;11.93;9.38;;;7.80;62.30;;;;;;5025537;28;20223;-83
2023/12/17 09:26:29;;;;;;;13.65;9.57;;;8.10;61.10;;;;;;5025496;28;20200;-87
2023/12/17 09:28:56;;;;;;;9.13;5.78;;;8.40;60.00;;;;;;5026606;28;20851;-87
2023/12/17 09:31:23;;;;;;;5.68;4.35;;;8.70;58.90;;;;;;5009918;28;20215;-87
2023/12/17 09:33:52;;;;;;;8.15;4.90;;;8.90;57.80;;;;;;5009320;28;20214;-86
2023/12/17 09:36:23;;;;;;;7.38;5.20;;;9.00;56.10;;;;;;5032082;28;20222;-88
2023/12/17 09:38:50;;;;;;;9.05;4.85;;;9.10;55.20;;;;;;5039951;28;20234;-87
2023/12/17 09:41:17;;;;;;;10.13;5.50;;;9.20;54.90;;;;;;5039683;28;20207;-87
2023/12/17 09:43:45;;;;;;;6.97;4.85;;;9.40;55.90;;;;;;5047215;28;20530;-85
2023/12/17 09:46:12;;;;;;;7.82;4.55;;;9.60;55.60;;;;;;5042000;28;20235;-87
2023/12/17 09:48:39;;;;;;;5.90;3.67;;;9.90;55.40;;;;;;5033822;28;20203;-86
2023/12/17 09:51:10;;;;;;;5.03;3.72;;;10.10;53.30;;;;;;5037186;28;20277;-87
2023/12/17 09:53:37;;;;;;;4.88;3.42;;;10.30;52.90;;;;;;5034955;28;20195;-88
2023/12/17 09:56:05;;;;;;;6.43;3.80;;;10.50;52.10;;;;;;5039257;28;20253;-87
2023/12/17 09:58:32;;;;;;;4.85;4.35;;;10.70;52.10;;;;;;5047172;28;20201;-86
2023/12/17 10:01:00;;;;;;;3.95;2.60;;;10.90;51.20;;;;;;5047463;28;20215;-86
2023/12/17 10:03:27;;;;;;;3.90;2.97;;;11.20;51.20;;;;;;5032026;28;20820;-84
2023/12/17 10:05:55;;;;;;;5.33;2.70;;;11.40;51.10;;;;;;5030223;28;20453;-86
2023/12/17 10:08:24;;;;;;;5.90;3.20;;;11.40;49.70;;;;;;5034965;28;20452;-87
2023/12/17 10:10:51;;;;;;;4.00;2.40;;;11.40;47.70;;;;;;5037687;28;20221;-85
2023/12/17 10:13:22;;;;;;;4.37;2.97;;;11.50;48.00;;;;;;5045593;28;20472;-86
2023/12/17 10:15:51;;;;;;;6.33;3.37;;;11.70;47.80;;;;;;5035515;28;20511;-86
2023/12/17 10:18:22;;;;;;;4.40;2.80;;;11.90;47.90;;;;;;5027914;28;21019;-86
2023/12/17 10:20:51;;;;;;;3.90;3.00;;;12.00;47.70;;;;;;5035953;28;20461;-86
2023/12/17 10:23:20;;;;;;;5.87;3.60;;;12.20;48.00;;;;;;5033429;28;20453;-87
2023/12/17 10:26:00;;;;;;;127.50;39.13;;;12.50;47.10;;;;;;5048193;28;20531;-86
2023/12/17 10:28:27;;;;;;;13.00;5.10;;;12.70;46.80;;;;;;5047198;28;20476;-87
2023/12/17 10:30:55;;;;;;;5.10;3.30;;;12.90;46.50;;;;;;5046692;28;20448;-86
2023/12/17 10:33:26;;;;;;;3.93;2.83;;;13.00;45.70;;;;;;5049593;28;20464;-86
2023/12/17 10:35:55;;;;;;;4.03;2.30;;;13.10;45.90;;;;;;5039474;28;20460;-85
2023/12/17 10:38:23;;;;;;;4.73;3.07;;;13.20;45.50;;;;;;5049199;28;20433;-85
2023/12/17 10:40:52;;;;;;;4.10;2.83;;;13.30;45.00;;;;;;5038927;28;20552;-85
2023/12/17 10:43:22;;;;;;;4.87;2.53;;;13.40;45.80;;;;;;5048773;28;20452;-85
2023/12/17 10:45:51;;;;;;;3.93;2.47;;;13.70;44.70;;;;;;5038297;28;20457;-85
2023/12/17 10:48:20;;;;;;;4.50;3.00;;;13.90;44.10;;;;;;5048340;28;20433;-85
2023/12/17 10:50:49;;;;;;;2.90;2.20;;;14.00;44.40;;;;;;5038899;28;20572;-86
2023/12/17 10:53:18;;;;;;;4.37;3.20;;;14.20;43.60;;;;;;5048704;28;20520;-85
2023/12/17 10:55:46;;;;;;;4.30;2.77;;;14.30;43.00;;;;;;5038954;28;20983;-86
2023/12/17 10:58:21;;;;;;;4.17;2.70;;;14.30;42.70;;;;;;5048021;28;20456;-86
2023/12/17 11:00:49;;;;;;;4.00;2.43;;;13.90;42.50;;;;;;5050364;28;20455;-86
2023/12/17 11:03:17;;;;;;;4.10;2.57;;;13.60;42.60;;;;;;5040600;28;20432;-85
2023/12/17 11:05:56;;;;;;;4.60;2.00;;;13.40;43.30;;;;;;5029756;28;21210;-88
2023/12/17 11:08:26;;;;;;;5.30;2.60;;;13.10;44.30;;;;;;5033176;28;20447;-87
2023/12/17 11:10:53;;;;;;;4.70;2.77;;;13.00;44.40;;;;;;5032478;28;20472;-91
2023/12/17 11:13:26;;;;;;;3.03;2.00;;;12.90;44.50;;;;;;5033889;28;21123;-90
2023/12/17 11:15:54;;;;;;;5.00;2.73;;;12.80;44.80;;;;;;5031588;28;20464;-90
2023/12/17 11:18:23;;;;;;;5.97;2.80;;;12.70;45.20;;;;;;5042923;28;21141;-90
2023/12/17 11:20:52;;;;;;;4.77;2.83;;;12.70;44.10;;;;;;5039129;28;20934;-88
2023/12/17 11:23:20;;;;;;;4.00;2.60;;;12.70;44.80;;;;;;5049166;28;20515;-88
2023/12/17 11:25:48;;;;;;;4.83;3.30;;;12.80;44.70;;;;;;5039234;28;21248;-91
2023/12/17 11:28:24;;;;;;;3.90;2.50;;;12.80;44.10;;;;;;5038916;28;20796;-88
2023/12/17 11:30:56;;;;;;;4.20;2.50;;;12.80;44.20;;;;;;5052920;28;20510;-91
2023/12/17 11:33:25;;;;;;;3.87;2.60;;;12.90;43.80;;;;;;5054895;28;20425;-93
2023/12/17 11:35:52;;;;;;;5.17;2.90;;;12.90;44.60;;;;;;5055234;28;20449;-95
2023/12/17 11:38:22;;;;;;;4.90;2.63;;;12.90;44.20;;;;;;5055274;28;20436;-95
2023/12/17 11:40:51;;;;;;;3.70;2.37;;;13.00;44.30;;;;;;5055911;28;20508;-95
2023/12/17 11:43:25;;;;;;;5.07;2.70;;;13.00;43.90;;;;;;5058055;28;20454;-94
2023/12/17 11:45:57;;;;;;;3.90;2.37;;;13.10;43.60;;;;;;5058988;28;20559;-95
2023/12/17 11:48:35;;;;;;;4.37;3.00;;;13.20;43.80;;;;;;5059923;28;20508;-91
2023/12/17 11:51:03;;;;;;;4.60;2.80;;;13.30;43.80;;;;;;5062618;28;20455;-95
2023/12/17 11:53:31;;;;;;;4.17;3.37;;;13.40;44.00;;;;;;5038847;28;20469;-90
2023/12/17 11:56:00;;;;;;;3.97;2.70;;;13.40;43.40;;;;;;5040287;28;20473;-94
2023/12/17 11:58:29;;;;;;;5.30;3.30;;;13.40;43.60;;;;;;5037887;28;20445;-93
2023/12/17 12:01:06;;;;;;;5.83;3.33;;;13.40;43.30;;;;;;5035438;28;20830;-94
2023/12/17 12:03:34;;;;;;;4.73;3.27;;;13.30;43.40;;;;;;5034444;28;20411;-93
2023/12/17 12:06:06;;;;;;;4.33;3.10;;;13.20;43.80;;;;;;5034437;28;21019;-93
2023/12/17 12:08:34;;;;;;;2.87;1.67;;;13.00;44.00;;;;;;5038902;28;20425;-92
2023/12/17 12:11:03;;;;;;;5.40;2.50;;;12.90;43.50;;;;;;5054534;28;20479;-92
2023/12/17 12:13:31;;;;;;;4.50;2.90;;;12.80;43.70;;;;;;5054650;28;20900;-90
2023/12/17 12:15:59;;;;;;;3.83;2.63;;;12.70;43.50;;;;;;5054549;28;20494;-89
2023/12/17 12:18:28;;;;;;;3.60;2.13;;;12.60;43.60;;;;;;5054005;28;20896;-89
2023/12/17 12:20:56;;;;;;;5.57;2.30;;;12.50;42.90;;;;;;5054371;28;20890;-89
2023/12/17 12:23:23;;;;;;;3.87;2.07;;;12.40;43.20;;;;;;5053666;28;20486;-88
2023/12/17 12:25:51;;;;;;;3.43;2.33;;;12.30;43.70;;;;;;5054264;28;20435;-90
2023/12/17 12:28:19;;;;;;;3.33;1.70;;;12.30;43.90;;;;;;5053901;28;20470;-91
2023/12/17 12:30:47;;;;;;;5.23;2.10;;;12.30;44.60;;;;;;5053692;28;20729;-90
2023/12/17 12:33:15;;;;;;;3.73;2.27;;;12.30;44.40;;;;;;5053434;28;20783;-90
2023/12/17 12:35:45;;;;;;;3.37;1.83;;;12.40;43.90;;;;;;5053296;28;20473;-87
2023/12/17 12:38:22;;;;;;;3.60;1.77;;;12.50;44.00;;;;;;5053402;28;20781;-88
2023/12/17 12:40:50;;;;;;;8.00;2.33;;;12.50;44.10;;;;;;5053854;28;20480;-89
2023/12/17 12:43:20;;;;;;;4.17;2.60;;;12.40;43.90;;;;;;5051594;28;20429;-88
2023/12/17 12:45:47;;;;;;;4.20;2.10;;;12.30;44.00;;;;;;5051736;28;20499;-89
2023/12/17 12:48:20;;;;;;;3.33;1.93;;;12.30;43.80;;;;;;5053157;28;20965;-88
2023/12/17 12:50:50;;;;;;;3.70;2.37;;;12.20;43.90;;;;;;5053853;28;20437;-89
2023/12/17 12:53:19;;;;;;;3.23;1.93;;;12.20;43.90;;;;;;5053079;28;20429;-88